Main page
METAR-TAF:

METAR-TAF

Airports :

Kuressaare Airport

Kuressaare, Estonia

latitude: 58-13-48N, longitude: 022-30-34E, elevation: 4 m

Current weather observation

The report was made 35 minutes ago, at 23:20 UTC
Wind 7 kt from the East, varying between Northeast and Southeast
Temperature -5°C
Humidity 100%
Pressure 1010 hPa
Visibility 10 km or more
Broken clouds at a height of 1800 ft

METAR: EEKE 042320Z AUTO 09007KT 040V130 9999NDV BKN018 M05/M05 Q1010

Time: 01:55 (23:55 UTC)

Forecast

The report was made 16 hours and 55 minutes ago, at 07:00 UTC
Forecast valid from 04 at 08 UTC to 04 at 14 UTC
Wind 8 kt from the North/Northeast
Visibility 10 km or more
Broken clouds at a height of 2000 ft
Becoming
from 04 at 09 UTC to 04 at 11 UTC
Wind 12 kt from the East/Northeast
Probability 30% :
Temporary
from 04 at 12 UTC to 04 at 14 UTC
Visibility: 3000 m
Broken clouds at a height of 500 ft
snow

TAF: EEKE 040700Z 0408/0414 02008KT 9999 BKN020 BECMG 0409/0411 07012KT PROB30 TEMPO 0412/0414 3000 SN BKN005

Weather observations and forecasts of more than 4000 airports (METAR and TAF reports).

The available stations are represented by yellow and red dots on the map.

Hover mouse over dot to see the name of the station.

Then click to see weather observations and forecasts.

To change the map : click on the green buttons with a black cross to zoom in, on the green button with a dash to zoom out, or on the green arrows for adjacent maps.


METAR-TAF: